Time;durP1;ratioP1;P1;durP2;ratioP2;P2;SDS_P1;SDS_P2;PMS_P1;PMS_P2;Temp;Humidity;BMP_temperature;BMP_pressure;BME280_temperature;BME280_humidity;BME280_pressure;Samples;Min_cycle;Max_cycle;Signal;HPM_P1;HPM_P2
2022/09/03 00:02:17;;;;;;;3.25;0.40;;;17.50;84.00;;;;;;4996727;28;20367;-81
2022/09/03 00:05:04;;;;;;;2.05;0.50;;;17.40;83.90;;;;;;4996811;28;20054;-80
2022/09/03 00:07:36;;;;;;;1.42;0.60;;;17.40;84.30;;;;;;4997963;28;20053;-81
2022/09/03 00:10:14;;;;;;;1.90;0.45;;;17.40;84.00;;;;;;4997536;28;20046;-80
2022/09/03 00:12:42;;;;;;;1.35;0.40;;;17.40;84.00;;;;;;4997443;28;20104;-80
2022/09/03 00:15:10;;;;;;;1.67;0.50;;;17.40;84.30;;;;;;4997306;28;20050;-79
2022/09/03 00:17:44;;;;;;;0.70;0.40;;;17.30;84.40;;;;;;4997293;28;20105;-80
2022/09/03 00:20:45;;;;;;;0.75;0.50;;;17.30;84.60;;;;;;4998089;28;20058;-81
2022/09/03 00:23:19;;;;;;;1.92;0.50;;;17.30;84.60;;;;;;4992352;28;20046;-81
2022/09/03 00:26:09;;;;;;;1.05;0.40;;;17.30;84.80;;;;;;4997123;28;20104;-80
2022/09/03 00:28:41;;;;;;;3.00;0.50;;;17.30;84.70;;;;;;4997164;28;20046;-81
2022/09/03 00:31:28;;;;;;;0.80;0.47;;;17.30;84.80;;;;;;4997923;28;20382;-81
2022/09/03 00:34:02;;;;;;;1.23;0.50;;;17.20;84.60;;;;;;4997616;28;20049;-80
2022/09/03 00:36:41;;;;;;;2.35;0.50;;;17.20;84.70;;;;;;4997769;28;20124;-80
2022/09/03 00:39:21;;;;;;;1.13;0.40;;;17.20;84.60;;;;;;4996023;28;20093;-80
2022/09/03 00:42:12;;;;;;;1.38;0.40;;;17.20;85.00;;;;;;4996418;28;20042;-80
2022/09/03 00:45:07;;;;;;;1.55;0.40;;;17.20;84.90;;;;;;4996771;28;20042;-80
2022/09/03 00:47:33;;;;;;;1.67;0.50;;;17.20;85.00;;;;;;4997615;28;20379;-80
2022/09/03 00:50:35;;;;;;;1.25;0.40;;;17.10;85.20;;;;;;4996658;28;20057;-80
2022/09/03 00:53:26;;;;;;;1.10;0.38;;;17.10;85.40;;;;;;4996020;28;20093;-80
2022/09/03 00:56:14;;;;;;;1.02;0.60;;;17.10;85.30;;;;;;4996619;28;20133;-80
2022/09/03 00:58:43;;;;;;;0.73;0.45;;;17.10;85.60;;;;;;4995263;28;20439;-81
2022/09/03 01:01:21;;;;;;;0.70;0.50;;;17.00;85.70;;;;;;4996485;28;20058;-79
2022/09/03 01:04:25;;;;;;;1.17;0.50;;;17.00;85.70;;;;;;4997116;28;20042;-80
2022/09/03 01:07:23;;;;;;;1.55;0.47;;;17.00;86.10;;;;;;4994010;28;20051;-81
2022/09/03 01:10:03;;;;;;;2.58;0.50;;;16.90;86.60;;;;;;4996197;28;20054;-80
2022/09/03 01:12:49;;;;;;;2.72;0.50;;;16.90;86.30;;;;;;4995418;28;20398;-81
2022/09/03 01:15:43;;;;;;;0.55;0.40;;;16.80;86.50;;;;;;4997052;28;20104;-81
2022/09/03 01:18:36;;;;;;;1.45;0.43;;;16.80;86.70;;;;;;4995432;28;20061;-81
2022/09/03 01:21:16;;;;;;;0.68;0.52;;;16.70;87.30;;;;;;4996210;28;20049;-81
2022/09/03 01:23:49;;;;;;;0.40;0.40;;;16.70;87.00;;;;;;4995651;28;20387;-80
2022/09/03 01:26:32;;;;;;;2.15;0.60;;;16.70;87.30;;;;;;4978558;28;20097;-80
2022/09/03 01:29:11;;;;;;;1.65;0.50;;;16.60;87.70;;;;;;4995924;28;20060;-81
2022/09/03 01:31:58;;;;;;;2.70;0.40;;;16.60;87.80;;;;;;4995288;28;20050;-80
2022/09/03 01:34:30;;;;;;;0.95;0.50;;;16.60;88.00;;;;;;4995896;28;20042;-79
2022/09/03 01:37:14;;;;;;;0.93;0.50;;;16.50;88.10;;;;;;4995861;28;20063;-81
2022/09/03 01:40:05;;;;;;;2.17;0.50;;;16.50;87.90;;;;;;4996090;28;20433;-80
2022/09/03 01:42:59;;;;;;;1.30;0.50;;;16.50;87.80;;;;;;4996259;28;20383;-80
2022/09/03 01:45:30;;;;;;;;;;;16.40;88.10;;;;;;4996027;28;20486;-80
2022/09/03 01:48:26;;;;;;;0.40;0.40;;;16.40;88.00;;;;;;4994652;28;19922;-80
2022/09/03 01:51:26;;;;;;;0.85;0.50;;;16.30;88.10;;;;;;4995615;28;20101;-81
2022/09/03 01:54:23;;;;;;;3.92;0.50;;;16.30;88.20;;;;;;4994894;28;20047;-81
2022/09/03 01:57:10;;;;;;;0.82;0.50;;;16.30;89.10;;;;;;4995502;28;20518;-80
2022/09/03 01:59:58;;;;;;;1.48;0.40;;;16.30;88.90;;;;;;4995020;28;20581;-80
2022/09/03 02:02:25;;;;;;;1.90;0.57;;;16.20;89.00;;;;;;4995869;28;20046;-81
2022/09/03 02:05:16;;;;;;;1.17;0.50;;;16.20;89.10;;;;;;4993979;28;20050;-80
2022/09/03 02:07:52;;;;;;;2.25;0.57;;;16.20;89.10;;;;;;4995449;28;20477;-80
2022/09/03 02:10:26;;;;;;;2.67;0.60;;;16.20;89.30;;;;;;4995720;28;20502;-81
2022/09/03 02:12:58;;;;;;;5.10;0.77;;;16.10;89.30;;;;;;4994078;28;20038;-79
2022/09/03 02:15:25;;;;;;;1.25;0.60;;;16.10;89.50;;;;;;4995506;28;20046;-81
2022/09/03 02:17:55;;;;;;;0.50;0.50;;;16.10;89.70;;;;;;4995043;28;20121;-81
2022/09/03 02:20:24;;;;;;;2.55;0.52;;;16.10;89.60;;;;;;4995795;28;20046;-80
2022/09/03 02:22:53;;;;;;;0.82;0.60;;;16.10;89.60;;;;;;4994323;28;20051;-82
2022/09/03 02:25:22;;;;;;;1.52;0.55;;;16.10;89.60;;;;;;4994908;28;20054;-81
2022/09/03 02:27:48;;;;;;;3.80;0.50;;;16.00;89.80;;;;;;4995672;28;20038;-81
2022/09/03 02:30:14;;;;;;;0.90;0.60;;;16.10;90.00;;;;;;4995106;28;20046;-81
2022/09/03 02:32:40;;;;;;;1.30;0.60;;;16.00;90.00;;;;;;4994865;28;20514;-81
2022/09/03 02:35:06;;;;;;;2.28;0.60;;;16.00;90.00;;;;;;4994805;28;20074;-80
2022/09/03 02:37:32;;;;;;;1.95;0.52;;;16.00;90.10;;;;;;4994787;28;20126;-80
2022/09/03 02:39:58;;;;;;;1.25;0.60;;;16.00;90.20;;;;;;4993704;28;20046;-81
2022/09/03 02:42:23;;;;;;;1.00;0.60;;;15.90;90.20;;;;;;4994796;28;20046;-81
2022/09/03 02:45:21;;;;;;;0.73;0.60;;;15.90;90.20;;;;;;4994643;28;20042;-80
2022/09/03 02:47:51;;;;;;;1.15;0.60;;;15.90;90.10;;;;;;4994312;28;20054;-81
2022/09/03 02:50:16;;;;;;;3.55;0.70;;;15.90;90.30;;;;;;4994554;28;20125;-80
2022/09/03 02:52:42;;;;;;;0.60;0.57;;;15.90;90.30;;;;;;4995185;28;20537;-79
2022/09/03 02:55:08;;;;;;;3.22;0.60;;;15.90;90.30;;;;;;4993686;28;20050;-81
2022/09/03 02:57:34;;;;;;;0.90;0.82;;;15.80;90.40;;;;;;4993108;28;20104;-81
2022/09/03 02:59:59;;;;;;;1.02;0.63;;;15.80;90.40;;;;;;4994368;28;20057;-79
2022/09/03 03:02:25;;;;;;;1.77;0.60;;;15.80;90.40;;;;;;4977330;28;20057;-80
2022/09/03 03:04:51;;;;;;;1.08;0.60;;;15.80;90.50;;;;;;4994733;28;20053;-80
2022/09/03 03:07:16;;;;;;;1.20;0.60;;;15.80;90.50;;;;;;4995071;28;20053;-81
2022/09/03 03:09:42;;;;;;;0.93;0.63;;;15.80;90.50;;;;;;4994455;28;20474;-80
2022/09/03 03:12:09;;;;;;;1.88;0.60;;;15.80;90.50;;;;;;4993516;28;20069;-82
2022/09/03 03:14:34;;;;;;;3.33;0.75;;;15.80;90.50;;;;;;4993344;28;20058;-80
2022/09/03 03:17:00;;;;;;;0.50;0.50;;;15.80;90.60;;;;;;4994791;28;20042;-80
2022/09/03 03:19:26;;;;;;;1.02;0.60;;;15.80;90.70;;;;;;4994386;28;20100;-79
2022/09/03 03:21:51;;;;;;;2.70;0.60;;;15.80;90.80;;;;;;4993195;28;20398;-80
2022/09/03 03:24:17;;;;;;;2.15;0.80;;;15.70;90.80;;;;;;4994309;28;20050;-81
2022/09/03 03:26:43;;;;;;;1.35;0.70;;;15.70;90.80;;;;;;4994426;28;20082;-80
2022/09/03 03:29:16;;;;;;;0.98;0.80;;;15.70;90.80;;;;;;4994261;28;20479;-80
2022/09/03 03:31:42;;;;;;;2.03;0.70;;;15.70;90.70;;;;;;4995088;28;20373;-80
2022/09/03 03:34:08;;;;;;;1.85;0.70;;;15.70;90.90;;;;;;4993150;28;20125;-81
2022/09/03 03:36:34;;;;;;;0.75;0.73;;;15.60;91.00;;;;;;4994393;28;20050;-81
2022/09/03 03:39:01;;;;;;;1.55;0.60;;;15.60;91.10;;;;;;4994112;28;20042;-80
2022/09/03 03:41:32;;;;;;;0.88;0.80;;;15.60;91.10;;;;;;4993154;28;20391;-81
2022/09/03 03:44:00;;;;;;;1.83;0.60;;;15.60;91.00;;;;;;4994944;28;20188;-80
2022/09/03 03:46:52;;;;;;;0.88;0.70;;;15.60;91.00;;;;;;4994518;28;20438;-81
2022/09/03 03:49:18;;;;;;;1.15;0.63;;;15.60;91.10;;;;;;4993531;28;20054;-81
2022/09/03 03:51:44;;;;;;;2.38;0.80;;;15.60;91.20;;;;;;4993996;28;20057;-81
2022/09/03 03:54:09;;;;;;;1.98;0.70;;;15.50;91.20;;;;;;4993678;28;20042;-81
2022/09/03 03:56:35;;;;;;;3.08;0.70;;;15.50;91.20;;;;;;4992629;28;20086;-80
2022/09/03 03:59:02;;;;;;;1.48;0.70;;;15.50;91.30;;;;;;4993885;28;20069;-81
2022/09/03 04:01:27;;;;;;;2.97;0.65;;;15.50;91.30;;;;;;4994216;28;20438;-81
2022/09/03 04:03:59;;;;;;;3.40;0.70;;;15.50;91.40;;;;;;4994336;28;20132;-81
2022/09/03 04:06:24;;;;;;;3.80;0.70;;;15.50;91.30;;;;;;4993895;28;20487;-81
2022/09/03 04:08:50;;;;;;;1.20;0.77;;;15.40;91.60;;;;;;4977461;28;20065;-80
2022/09/03 04:11:18;;;;;;;1.08;0.60;;;15.40;91.40;;;;;;4994121;28;20042;-80
2022/09/03 04:13:45;;;;;;;1.65;0.88;;;15.40;91.60;;;;;;4976683;28;20062;-79
2022/09/03 04:16:17;;;;;;;1.95;0.70;;;15.40;91.60;;;;;;4995433;28;20475;-80
2022/09/03 04:18:43;;;;;;;1.00;0.68;;;15.40;91.60;;;;;;4997381;28;20057;-81
2022/09/03 04:21:11;;;;;;;0.70;0.60;;;15.30;91.60;;;;;;4997262;28;20042;-81
2022/09/03 04:23:42;;;;;;;2.25;0.65;;;15.30;91.60;;;;;;4997135;28;20038;-81
2022/09/03 04:26:10;;;;;;;0.82;0.70;;;15.30;91.60;;;;;;4997208;28;20134;-81
2022/09/03 04:28:36;;;;;;;1.83;0.77;;;15.30;91.70;;;;;;4995961;28;20053;-80
2022/09/03 04:31:07;;;;;;;0.98;0.85;;;15.30;91.80;;;;;;4996124;28;20054;-81
2022/09/03 04:33:34;;;;;;;1.40;1.00;;;15.30;91.80;;;;;;4996964;28;20049;-80
2022/09/03 04:36:06;;;;;;;0.90;0.63;;;15.30;91.80;;;;;;4997710;28;20362;-79
2022/09/03 04:38:33;;;;;;;1.35;0.82;;;15.30;91.80;;;;;;4996743;28;20065;-80
2022/09/03 04:40:59;;;;;;;2.08;0.80;;;15.30;91.90;;;;;;4996921;28;20561;-80
2022/09/03 04:43:26;;;;;;;1.55;0.77;;;15.20;91.90;;;;;;4996593;28;20129;-81
2022/09/03 04:45:58;;;;;;;1.90;0.90;;;15.20;91.90;;;;;;4996584;28;20042;-80
2022/09/03 04:48:25;;;;;;;1.35;0.70;;;15.20;92.00;;;;;;4996316;28;20487;-80
2022/09/03 04:50:51;;;;;;;1.77;0.90;;;15.10;92.00;;;;;;4995811;28;20065;-78
2022/09/03 04:53:16;;;;;;;1.52;0.90;;;15.10;92.10;;;;;;4996795;28;20047;-80
2022/09/03 04:55:42;;;;;;;1.52;0.93;;;15.10;92.10;;;;;;4996471;28;20096;-80
2022/09/03 04:58:08;;;;;;;0.85;0.70;;;15.10;92.10;;;;;;4996094;28;20144;-80
2022/09/03 05:00:36;;;;;;;0.70;0.70;;;15.10;92.20;;;;;;4996088;28;20061;-81
2022/09/03 05:03:03;;;;;;;1.55;0.90;;;15.10;92.20;;;;;;4996305;28;20151;-80
2022/09/03 05:05:32;;;;;;;0.90;0.70;;;15.00;92.30;;;;;;4996385;28;20093;-81
2022/09/03 05:08:00;;;;;;;1.63;0.80;;;15.00;92.40;;;;;;4996373;28;20082;-80
2022/09/03 05:10:26;;;;;;;4.05;0.80;;;15.00;92.40;;;;;;4996308;28;20524;-81
2022/09/03 05:13:05;;;;;;;0.93;0.68;;;15.00;92.40;;;;;;4995072;28;20085;-80
2022/09/03 05:15:35;;;;;;;2.55;0.80;;;15.00;92.40;;;;;;4996137;28;20133;-80
2022/09/03 05:18:02;;;;;;;2.10;0.80;;;15.00;92.50;;;;;;4995458;28;20430;-81
2022/09/03 05:20:29;;;;;;;1.45;0.80;;;14.90;92.50;;;;;;4996060;28;20540;-81
2022/09/03 05:22:56;;;;;;;1.20;0.82;;;14.90;92.60;;;;;;4996030;28;20129;-81
2022/09/03 05:25:22;;;;;;;1.65;0.70;;;14.90;92.60;;;;;;4994893;28;20046;-81
2022/09/03 05:27:49;;;;;;;1.70;0.80;;;14.90;92.60;;;;;;4996674;28;20046;-79
2022/09/03 05:30:15;;;;;;;1.05;0.90;;;14.90;92.70;;;;;;4995835;28;20050;-81
2022/09/03 05:32:41;;;;;;;0.90;0.77;;;14.80;92.70;;;;;;4995920;28;20038;-79
2022/09/03 05:35:08;;;;;;;1.35;0.80;;;14.90;92.90;;;;;;4995818;28;20107;-81
2022/09/03 05:37:34;;;;;;;2.03;0.90;;;14.90;92.80;;;;;;4995857;28;20055;-82
2022/09/03 05:39:59;;;;;;;0.88;0.70;;;14.90;92.90;;;;;;4996053;28;20109;-82
2022/09/03 05:42:27;;;;;;;0.90;0.80;;;14.90;93.00;;;;;;4998588;28;20114;-82
2022/09/03 05:44:53;;;;;;;1.13;0.80;;;14.90;93.00;;;;;;4995689;28;20491;-82
2022/09/03 05:47:19;;;;;;;0.82;0.70;;;14.90;93.00;;;;;;4996175;28;20046;-83
2022/09/03 05:49:45;;;;;;;2.25;0.70;;;14.90;93.00;;;;;;4995463;28;20390;-82
2022/09/03 05:52:10;;;;;;;1.15;0.70;;;14.90;93.00;;;;;;4995417;28;20096;-82
2022/09/03 05:54:36;;;;;;;1.10;0.70;;;14.90;93.10;;;;;;4995394;28;20376;-82
2022/09/03 05:57:01;;;;;;;0.93;0.80;;;14.90;93.20;;;;;;4995638;28;20387;-79
2022/09/03 05:59:27;;;;;;;3.45;0.90;;;14.90;93.10;;;;;;4994344;28;20054;-79
2022/09/03 06:01:53;;;;;;;1.83;0.90;;;14.90;93.10;;;;;;4995569;28;20051;-79
2022/09/03 06:04:19;;;;;;;1.40;0.90;;;14.90;93.10;;;;;;4995055;28;20478;-80
2022/09/03 06:06:46;;;;;;;1.83;0.80;;;15.00;93.10;;;;;;4995108;28;20049;-80
2022/09/03 06:09:18;;;;;;;1.23;0.88;;;15.00;93.20;;;;;;4995434;28;20050;-82
2022/09/03 06:11:45;;;;;;;1.52;0.82;;;15.00;93.20;;;;;;4995968;28;20114;-80
2022/09/03 06:14:12;;;;;;;1.88;0.80;;;15.00;93.10;;;;;;4994150;28;20094;-82
2022/09/03 06:16:48;;;;;;;1.20;0.93;;;15.00;93.10;;;;;;4995033;28;20051;-79
2022/09/03 06:19:14;;;;;;;2.05;0.75;;;15.10;93.20;;;;;;4995179;28;20035;-80
2022/09/03 06:21:42;;;;;;;1.88;1.00;;;15.10;93.20;;;;;;4994752;28;20047;-80
2022/09/03 06:24:10;;;;;;;2.25;0.75;;;15.10;93.20;;;;;;4995318;28;20414;-80
2022/09/03 06:26:37;;;;;;;2.45;0.85;;;15.10;93.10;;;;;;4993845;28;20081;-79
2022/09/03 06:29:03;;;;;;;1.23;0.82;;;15.20;93.20;;;;;;4994634;28;20054;-80
2022/09/03 06:31:28;;;;;;;1.95;0.90;;;15.20;93.10;;;;;;4994766;28;20058;-80
2022/09/03 06:33:54;;;;;;;1.48;0.80;;;15.30;93.20;;;;;;4993561;28;20134;-79
2022/09/03 06:36:22;;;;;;;1.05;0.80;;;15.30;93.20;;;;;;4994761;28;20136;-80
2022/09/03 06:38:51;;;;;;;0.98;0.70;;;15.30;93.20;;;;;;4993011;28;20053;-80
2022/09/03 06:41:19;;;;;;;1.20;0.90;;;15.30;93.10;;;;;;4994478;28;20046;-80
2022/09/03 06:43:46;;;;;;;1.42;0.80;;;15.40;93.20;;;;;;4994408;28;20042;-81
2022/09/03 06:46:18;;;;;;;1.67;0.70;;;15.40;93.20;;;;;;4994719;28;20116;-81
2022/09/03 06:48:45;;;;;;;2.33;0.90;;;15.50;93.20;;;;;;4994357;28;20168;-80
2022/09/03 06:51:13;;;;;;;0.93;0.80;;;15.50;93.10;;;;;;4993739;28;20132;-79
2022/09/03 06:53:41;;;;;;;1.35;0.70;;;15.50;93.00;;;;;;4994346;28;20489;-80
2022/09/03 06:56:09;;;;;;;1.48;0.80;;;15.60;93.10;;;;;;4994385;28;20050;-81
2022/09/03 06:58:37;;;;;;;1.05;0.65;;;15.60;93.00;;;;;;4994792;28;20050;-79
2022/09/03 07:01:06;;;;;;;1.50;0.80;;;15.70;93.00;;;;;;4994851;28;20050;-81
2022/09/03 07:03:33;;;;;;;0.63;0.63;;;15.70;92.90;;;;;;4994195;28;20045;-81
2022/09/03 07:06:04;;;;;;;1.60;0.85;;;15.80;92.80;;;;;;4977355;28;20101;-80
2022/09/03 07:08:31;;;;;;;1.48;0.95;;;15.80;92.80;;;;;;4993872;28;20490;-81
2022/09/03 07:11:08;;;;;;;1.02;0.93;;;15.90;93.00;;;;;;4993246;28;20137;-81
2022/09/03 07:13:40;;;;;;;1.65;0.60;;;15.90;92.90;;;;;;4994968;28;20035;-81
2022/09/03 07:16:07;;;;;;;3.92;0.70;;;16.00;92.80;;;;;;4995251;28;20145;-80
2022/09/03 07:18:33;;;;;;;0.60;0.57;;;16.00;92.70;;;;;;4993393;28;20133;-81
2022/09/03 07:21:00;;;;;;;2.13;0.77;;;16.10;92.80;;;;;;4994129;28;20054;-81
2022/09/03 07:23:26;;;;;;;0.75;0.70;;;16.20;92.70;;;;;;4994993;28;20133;-82
2022/09/03 07:26:03;;;;;;;4.05;0.80;;;16.20;92.70;;;;;;4994293;28;20093;-82
2022/09/03 07:28:32;;;;;;;0.77;0.70;;;16.20;92.60;;;;;;4994199;28;20079;-74
2022/09/03 07:31:07;;;;;;;3.58;0.70;;;16.30;92.60;;;;;;4993070;28;20055;-80
2022/09/03 07:33:34;;;;;;;2.65;0.85;;;16.40;92.60;;;;;;4994760;28;20406;-82
2022/09/03 07:36:08;;;;;;;1.45;0.70;;;16.40;92.40;;;;;;4994244;28;20145;-82
2022/09/03 07:38:35;;;;;;;1.50;0.63;;;16.50;92.40;;;;;;4994388;28;20439;-81
2022/09/03 07:41:04;;;;;;;1.60;0.70;;;16.60;92.50;;;;;;4992968;28;20045;-76
2022/09/03 07:43:41;;;;;;;1.38;0.65;;;16.60;92.20;;;;;;4992989;28;20478;-77
2022/09/03 07:46:07;;;;;;;2.05;0.70;;;16.70;92.30;;;;;;4994950;28;20046;-77
2022/09/03 07:48:33;;;;;;;0.60;0.57;;;16.70;92.00;;;;;;4994005;28;20069;-77
2022/09/03 07:51:00;;;;;;;1.10;0.70;;;16.80;92.20;;;;;;4995186;28;20100;-78
2022/09/03 07:53:29;;;;;;;3.78;0.70;;;16.80;92.10;;;;;;4997711;28;20054;-76
2022/09/03 07:56:06;;;;;;;1.38;0.63;;;16.90;92.10;;;;;;4997749;28;20050;-74
2022/09/03 07:58:33;;;;;;;1.13;0.60;;;17.00;91.90;;;;;;4998721;28;20058;-73
2022/09/03 08:01:04;;;;;;;1.60;0.68;;;17.00;92.10;;;;;;4997601;28;20046;-78
2022/09/03 08:03:30;;;;;;;0.95;0.80;;;17.10;91.90;;;;;;4997591;28;20073;-78
2022/09/03 08:06:01;;;;;;;2.20;0.70;;;17.20;91.80;;;;;;4997619;28;20101;-78
2022/09/03 08:08:26;;;;;;;2.58;0.80;;;17.20;91.70;;;;;;4997673;28;20062;-78
2022/09/03 08:10:52;;;;;;;2.25;0.60;;;17.30;91.70;;;;;;4997690;28;20050;-79
2022/09/03 08:13:18;;;;;;;1.27;0.57;;;17.30;91.70;;;;;;4997222;28;20234;-80
2022/09/03 08:15:53;;;;;;;1.88;0.60;;;17.40;91.60;;;;;;4997461;28;20050;-76
2022/09/03 08:18:19;;;;;;;1.02;0.60;;;17.50;91.60;;;;;;4996490;28;20402;-77
2022/09/03 08:20:44;;;;;;;2.50;0.70;;;17.60;91.20;;;;;;4995794;28;20054;-74
2022/09/03 08:23:10;;;;;;;2.83;0.70;;;17.60;91.00;;;;;;4996386;28;20546;-78
2022/09/03 08:25:36;;;;;;;2.13;0.60;;;17.70;91.00;;;;;;4996983;28;20497;-78
2022/09/03 08:28:02;;;;;;;1.25;0.70;;;17.70;90.80;;;;;;4996194;28;20077;-78
2022/09/03 08:30:27;;;;;;;1.83;0.70;;;17.80;90.80;;;;;;4996735;28;20414;-78
2022/09/03 08:32:54;;;;;;;1.48;0.70;;;17.90;90.80;;;;;;4996542;28;20081;-78
2022/09/03 08:35:21;;;;;;;4.05;0.63;;;17.90;90.80;;;;;;4996972;28;20051;-78
2022/09/03 08:37:50;;;;;;;2.72;0.68;;;18.00;90.80;;;;;;4996537;28;20050;-75
2022/09/03 08:40:16;;;;;;;1.52;0.60;;;18.00;90.50;;;;;;4996375;28;20057;-77
2022/09/03 08:43:04;;;;;;;0.77;0.63;;;18.10;90.50;;;;;;4996448;28;20062;-75
2022/09/03 08:45:33;;;;;;;1.63;0.77;;;18.20;90.50;;;;;;4997078;28;20173;-79
2022/09/03 08:48:12;;;;;;;2.33;0.70;;;18.20;90.40;;;;;;4995890;28;20065;-79
2022/09/03 08:50:54;;;;;;;2.20;0.60;;;18.20;90.40;;;;;;4996232;28;20058;-77
2022/09/03 08:53:22;;;;;;;1.45;0.63;;;18.30;90.50;;;;;;4979465;28;20050;-79
2022/09/03 08:56:01;;;;;;;0.95;0.60;;;18.40;90.30;;;;;;4996410;28;20046;-78
2022/09/03 08:58:34;;;;;;;1.77;0.60;;;18.50;90.10;;;;;;4997164;28;20050;-76
2022/09/03 09:01:05;;;;;;;;;;;18.50;90.10;;;;;;4996411;28;20061;-75
2022/09/03 09:03:42;;;;;;;1.00;0.77;;;18.60;90.20;;;;;;4995077;28;19922;-78
2022/09/03 09:06:24;;;;;;;1.52;0.60;;;18.70;89.50;;;;;;4996094;28;20050;-78
2022/09/03 09:09:10;;;;;;;2.42;0.60;;;18.70;89.60;;;;;;4995411;28;20046;-74
2022/09/03 09:11:39;;;;;;;1.05;0.50;;;18.80;89.50;;;;;;4995702;28;20061;-79
2022/09/03 09:14:19;;;;;;;1.67;0.60;;;18.90;89.40;;;;;;4994544;28;20050;-79
2022/09/03 09:16:50;;;;;;;3.45;0.60;;;18.90;89.40;;;;;;4995850;28;20129;-78
2022/09/03 09:19:58;;;;;;;1.50;0.50;;;19.00;89.40;;;;;;4995186;28;20042;-79
2022/09/03 09:22:33;;;;;;;5.28;0.60;;;19.00;89.50;;;;;;4996015;28;20050;-77
2022/09/03 09:25:08;;;;;;;3.28;0.52;;;19.10;89.20;;;;;;4995747;28;20054;-74
2022/09/03 09:27:33;;;;;;;1.95;0.43;;;19.30;94.30;;;;;;4978672;28;20351;-78
2022/09/03 09:30:04;;;;;;;2.65;0.70;;;19.40;94.20;;;;;;4995280;28;20104;-78
2022/09/03 09:32:32;;;;;;;1.08;0.50;;;20.00;93.80;;;;;;4995644;28;20050;-82
2022/09/03 09:34:58;;;;;;;1.65;0.65;;;19.60;93.30;;;;;;4993779;28;20062;-79
2022/09/03 09:37:24;;;;;;;0.95;0.60;;;19.60;93.20;;;;;;4995581;28;20096;-74
2022/09/03 09:39:56;;;;;;;2.35;0.60;;;19.70;91.60;;;;;;4994927;28;20100;-76
2022/09/03 09:42:23;;;;;;;4.57;0.68;;;19.90;93.50;;;;;;4995366;28;20148;-78
2022/09/03 09:44:49;;;;;;;1.48;0.43;;;19.80;92.90;;;;;;4995368;28;20060;-78
2022/09/03 09:47:29;;;;;;;1.98;0.50;;;19.80;87.30;;;;;;4994502;28;20081;-82
2022/09/03 09:49:58;;;;;;;0.98;0.50;;;19.90;87.20;;;;;;4995251;28;20121;-79
2022/09/03 09:52:27;;;;;;;1.85;0.50;;;20.00;86.20;;;;;;4994721;28;20081;-80
2022/09/03 09:55:06;;;;;;;4.97;0.50;;;20.00;85.60;;;;;;4994874;28;20085;-79
2022/09/03 09:57:33;;;;;;;2.45;0.60;;;20.10;90.50;;;;;;4995065;28;20066;-76
2022/09/03 10:00:17;;;;;;;0.90;0.55;;;20.30;87.00;;;;;;4993381;28;20054;-79
2022/09/03 10:02:49;;;;;;;1.73;0.50;;;20.30;89.50;;;;;;4994204;28;20050;-76
2022/09/03 10:05:31;;;;;;;2.97;0.52;;;20.30;91.10;;;;;;4994838;28;20085;-77
2022/09/03 10:08:00;;;;;;;0.70;0.50;;;20.40;84.20;;;;;;4993506;28;20046;-79
2022/09/03 10:10:28;;;;;;;1.73;0.50;;;20.40;85.20;;;;;;4994353;28;20097;-77
2022/09/03 10:13:16;;;;;;;1.63;0.50;;;20.50;85.70;;;;;;4993021;28;20052;-78
2022/09/03 10:15:59;;;;;;;0.43;0.40;;;20.60;85.30;;;;;;4993882;28;20057;-78
2022/09/03 10:18:39;;;;;;;0.90;0.50;;;20.60;84.40;;;;;;4993272;28;20390;-78
2022/09/03 10:21:21;;;;;;;2.83;0.50;;;20.70;84.20;;;;;;4995160;28;20053;-81
2022/09/03 10:23:52;;;;;;;1.45;0.60;;;20.80;82.20;;;;;;4994458;28;20070;-79
2022/09/03 10:26:21;;;;;;;0.88;0.47;;;20.90;83.10;;;;;;4999119;28;20050;-79
2022/09/03 10:28:51;;;;;;;0.50;0.40;;;20.30;82.70;;;;;;5000509;28;20037;-80
2022/09/03 10:31:40;;;;;;;4.03;0.50;;;20.90;81.30;;;;;;4999801;28;20081;-85
2022/09/03 10:34:32;;;;;;;2.95;0.50;;;21.10;82.60;;;;;;4993737;28;20058;-80
2022/09/03 10:37:13;;;;;;;1.02;0.50;;;21.10;80.20;;;;;;4993048;28;20060;-80
2022/09/03 10:39:46;;;;;;;1.48;0.38;;;21.10;79.60;;;;;;4993821;28;20050;-75
2022/09/03 10:42:30;;;;;;;2.40;0.43;;;21.20;78.90;;;;;;4994056;28;20130;-79
2022/09/03 10:45:41;;;;;;;1.75;0.50;;;21.20;78.40;;;;;;4993874;28;20049;-79
2022/09/03 10:48:13;;;;;;;1.77;0.50;;;21.30;79.20;;;;;;4992966;28;20104;-79
2022/09/03 10:51:03;;;;;;;1.83;0.43;;;21.40;77.80;;;;;;4994217;28;20046;-80
2022/09/03 10:53:53;;;;;;;3.33;0.50;;;21.40;77.60;;;;;;4993609;28;20494;-79
2022/09/03 10:56:44;;;;;;;0.98;0.38;;;21.50;76.80;;;;;;4993889;28;20089;-78
2022/09/03 10:59:31;;;;;;;1.13;0.45;;;21.60;79.40;;;;;;4992454;28;20137;-79
2022/09/03 11:02:31;;;;;;;2.30;0.50;;;21.60;80.30;;;;;;4993878;28;20371;-79
2022/09/03 11:05:35;;;;;;;2.30;0.50;;;21.70;76.30;;;;;;4993412;28;20092;-80
2022/09/03 11:08:11;;;;;;;1.40;0.40;;;21.80;75.40;;;;;;4989288;28;20157;-79
2022/09/03 11:10:45;;;;;;;2.30;0.50;;;21.80;73.90;;;;;;4993562;28;20100;-78
2022/09/03 11:13:23;;;;;;;1.85;0.50;;;21.90;73.30;;;;;;4993004;28;20054;-79
2022/09/03 11:16:05;;;;;;;2.75;0.50;;;21.90;73.60;;;;;;4994026;28;20192;-79
2022/09/03 11:18:39;;;;;;;0.80;0.40;;;21.90;73.30;;;;;;4991974;28;20121;-79
2022/09/03 11:21:11;;;;;;;5.30;0.60;;;22.00;72.50;;;;;;4993065;28;20046;-80
2022/09/03 11:23:42;;;;;;;5.40;0.43;;;22.00;73.00;;;;;;4993842;28;20042;-77
2022/09/03 11:26:12;;;;;;;2.38;0.45;;;22.00;72.10;;;;;;4997640;28;20042;-82
2022/09/03 11:29:01;;;;;;;1.30;0.35;;;22.10;72.00;;;;;;4997667;28;20129;-82
2022/09/03 11:31:56;;;;;;;1.02;0.40;;;22.20;72.50;;;;;;4997899;28;20062;-76
2022/09/03 11:34:28;;;;;;;1.67;0.40;;;22.20;71.70;;;;;;4997662;28;20039;-76
2022/09/03 11:37:21;;;;;;;2.67;0.40;;;22.20;72.00;;;;;;4996159;28;20046;-79
2022/09/03 11:40:09;;;;;;;2.55;0.50;;;22.30;71.60;;;;;;4996507;28;20497;-78
2022/09/03 11:42:37;;;;;;;0.73;0.30;;;22.30;71.10;;;;;;4997266;28;20085;-78
2022/09/03 11:45:28;;;;;;;2.53;0.50;;;22.30;70.80;;;;;;4997694;28;20050;-76
2022/09/03 11:47:55;;;;;;;2.33;0.40;;;22.40;70.70;;;;;;4996961;28;20133;-77
2022/09/03 11:50:23;;;;;;;1.77;0.47;;;22.40;70.60;;;;;;4997071;28;20068;-80
2022/09/03 11:53:05;;;;;;;2.95;0.50;;;22.40;70.20;;;;;;4997105;28;20142;-75
2022/09/03 11:55:33;;;;;;;2.25;0.47;;;22.50;69.40;;;;;;4997459;28;20360;-76
2022/09/03 11:58:12;;;;;;;0.55;0.40;;;22.50;69.50;;;;;;4996812;28;20066;-75
2022/09/03 12:00:39;;;;;;;1.75;0.40;;;22.50;70.20;;;;;;4997423;28;20421;-79
2022/09/03 12:03:06;;;;;;;2.03;0.40;;;22.60;69.80;;;;;;4996710;28;20050;-78
2022/09/03 12:06:07;;;;;;;0.60;0.38;;;22.60;69.20;;;;;;4996798;28;20050;-77
2022/09/03 12:09:10;;;;;;;0.70;0.40;;;22.60;69.90;;;;;;4996633;28;20066;-75
2022/09/03 12:11:40;;;;;;;;;;;22.70;69.20;;;;;;4997070;28;20042;-77
2022/09/03 12:14:23;;;;;;;1.38;0.50;;;22.70;69.70;;;;;;4996249;28;19928;-74
2022/09/03 12:17:13;;;;;;;1.67;0.40;;;22.70;68.70;;;;;;4996190;28;20513;-76
2022/09/03 12:19:42;;;;;;;1.25;0.38;;;22.80;68.30;;;;;;4996154;28;20085;-78
2022/09/03 12:22:19;;;;;;;1.42;0.30;;;22.80;68.30;;;;;;4995507;28;20569;-80
2022/09/03 12:24:45;;;;;;;1.38;0.50;;;22.80;68.20;;;;;;4995579;28;20128;-81
2022/09/03 12:27:32;;;;;;;1.92;0.40;;;22.80;68.00;;;;;;4995499;28;20098;-79
2022/09/03 12:30:01;;;;;;;2.22;0.45;;;22.90;67.70;;;;;;4997381;28;20061;-79
2022/09/03 12:32:35;;;;;;;2.00;0.40;;;22.90;67.10;;;;;;4996036;28;20133;-77
2022/09/03 12:35:23;;;;;;;1.13;0.40;;;22.90;66.60;;;;;;4979242;28;20042;-77
2022/09/03 12:37:51;;;;;;;1.58;0.80;;;23.00;67.10;;;;;;4994135;28;20202;-77
2022/09/03 12:40:20;;;;;;;2.25;0.38;;;23.00;66.10;;;;;;4979107;28;20050;-77
2022/09/03 12:42:46;;;;;;;2.10;0.40;;;23.00;65.80;;;;;;4995688;28;20047;-76
2022/09/03 12:45:15;;;;;;;2.30;0.50;;;23.10;65.30;;;;;;4995744;28;20104;-76
2022/09/03 12:47:42;;;;;;;0.70;0.40;;;23.10;65.20;;;;;;4995516;28;20069;-76
2022/09/03 12:50:15;;;;;;;1.40;0.50;;;23.10;64.90;;;;;;4995590;28;20047;-75
2022/09/03 12:52:47;;;;;;;1.17;0.40;;;23.10;65.10;;;;;;4995832;28;20122;-74
2022/09/03 12:55:28;;;;;;;1.27;0.40;;;23.10;65.50;;;;;;4995332;28;20490;-80
2022/09/03 12:58:11;;;;;;;0.77;0.40;;;23.20;65.80;;;;;;4994530;28;20420;-78
2022/09/03 13:00:55;;;;;;;1.52;0.40;;;23.20;65.90;;;;;;4996368;28;20058;-81
2022/09/03 13:03:48;;;;;;;1.85;0.38;;;23.20;65.80;;;;;;4995911;28;20439;-81
2022/09/03 13:06:22;;;;;;;0.85;0.38;;;23.30;65.90;;;;;;4995267;28;20376;-76
2022/09/03 13:08:51;;;;;;;1.58;0.40;;;23.30;65.40;;;;;;4995646;28;20049;-78
2022/09/03 13:11:19;;;;;;;1.77;0.50;;;23.30;65.10;;;;;;4994782;28;20081;-76
2022/09/03 13:14:12;;;;;;;1.38;0.45;;;23.30;65.00;;;;;;4995645;28;20056;-76
2022/09/03 13:16:43;;;;;;;1.08;0.40;;;23.30;64.50;;;;;;4995808;28;20050;-78
2022/09/03 13:19:33;;;;;;;2.63;0.50;;;23.40;64.20;;;;;;4994418;28;20196;-78
2022/09/03 13:22:17;;;;;;;1.40;0.40;;;23.40;64.20;;;;;;4995750;28;20050;-78